Time;durP1;ratioP1;P1;durP2;ratioP2;P2;SDS_P1;SDS_P2;PMS_P1;PMS_P2;Temp;Humidity;BMP_temperature;BMP_pressure;BME280_temperature;BME280_humidity;BME280_pressure;Samples;Min_cycle;Max_cycle;Signal;HPM_P1;HPM_P2
2023/04/21 00:00:14;;;;;;;36.80;13.30;;;;;;;9.54;57.25;99211.61;105066;1259;101290;-83
2023/04/21 00:03:02;;;;;;;29.40;11.80;;;;;;;9.50;57.42;99210.08;104897;1260;108519;-72
2023/04/21 00:05:31;;;;;;;30.10;12.50;;;;;;;9.46;57.39;99211.91;104850;1260;98319;-74
2023/04/21 00:08:00;;;;;;;32.50;12.30;;;;;;;9.41;57.33;99217.71;105060;1258;98449;-72
2023/04/21 00:10:27;;;;;;;32.30;13.50;;;;;;;9.38;57.38;99218.98;105029;1259;111044;-72
2023/04/21 00:12:55;;;;;;;28.60;12.50;;;;;;;9.37;57.46;99214.63;105088;1255;102238;-73
2023/04/21 00:15:23;;;;;;;33.30;13.20;;;;;;;9.35;57.47;99213.00;105013;1256;107589;-75
2023/04/21 00:17:51;;;;;;;30.30;13.30;;;;;;;9.33;57.42;99213.67;104855;1270;97973;-73
2023/04/21 00:20:19;;;;;;;27.90;11.20;;;;;;;9.32;57.61;99209.46;105236;1258;98541;-74
2023/04/21 00:22:47;;;;;;;30.10;12.10;;;;;;;9.32;57.70;99208.77;105156;1260;111542;-73
2023/04/21 00:25:15;;;;;;;40.40;14.10;;;;;;;9.30;57.73;99207.48;105142;1257;102219;-83
2023/04/21 00:27:42;;;;;;;32.80;11.60;;;;;;;9.31;57.85;99204.38;105135;1270;107656;-74
2023/04/21 00:30:10;;;;;;;28.00;11.60;;;;;;;9.32;57.83;99199.73;105049;1254;97999;-73
2023/04/21 00:32:38;;;;;;;29.10;11.50;;;;;;;9.32;58.01;99201.72;105123;1258;98061;-73
2023/04/21 00:35:07;;;;;;;27.70;11.50;;;;;;;9.32;57.99;99201.16;105088;1255;110656;-76
2023/04/21 00:37:35;;;;;;;28.80;11.90;;;;;;;9.32;57.96;99198.00;105023;1258;101991;-74
2023/04/21 00:40:04;;;;;;;26.00;11.20;;;;;;;9.30;57.95;99203.21;105113;1278;107072;-74
2023/04/21 00:42:32;;;;;;;30.50;12.40;;;;;;;9.30;58.04;99200.77;105008;1256;99160;-74
2023/04/21 00:45:00;;;;;;;28.40;13.10;;;;;;;9.30;58.11;99196.84;104888;1260;99320;-73
2023/04/21 00:47:28;;;;;;;29.60;13.40;;;;;;;9.32;58.17;99191.44;104887;1261;111297;-72
2023/04/21 00:49:58;;;;;;;34.40;14.80;;;;;;;9.34;58.28;99190.92;105106;1258;102289;-77
2023/04/21 00:52:27;;;;;;;48.90;24.00;;;;;;;9.34;58.29;99191.30;104850;1278;107642;-78
2023/04/21 00:54:56;;;;;;;41.30;20.50;;;;;;;9.33;58.31;99187.27;105001;1277;99266;-73
2023/04/21 00:57:24;;;;;;;44.50;19.90;;;;;;;9.34;58.40;99187.59;105063;1255;97935;-73
2023/04/21 00:59:51;;;;;;;41.70;21.40;;;;;;;9.33;58.41;99185.15;104866;1278;111279;-74
2023/04/21 01:02:21;;;;;;;42.50;19.60;;;;;;;9.32;58.43;99188.06;104864;1255;102248;-73
2023/04/21 01:04:49;;;;;;;51.20;26.90;;;;;;;9.30;58.57;99185.38;105002;1269;108863;-73
2023/04/21 01:07:17;;;;;;;62.70;32.30;;;;;;;9.25;58.55;99191.02;105111;1259;97961;-74
2023/04/21 01:09:45;;;;;;;66.00;33.20;;;;;;;9.18;58.58;99184.90;104882;1258;98448;-73
2023/04/21 01:12:13;;;;;;;47.30;22.50;;;;;;;9.12;58.60;99186.89;104908;1256;111128;-74
2023/04/21 01:14:41;;;;;;;36.00;17.20;;;;;;;9.06;58.53;99183.89;105081;1255;102232;-75
2023/04/21 01:17:09;;;;;;;44.30;20.40;;;;;;;9.00;58.57;99188.86;104857;1278;107623;-73
2023/04/21 01:19:41;;;;;;;43.60;22.70;;;;;;;8.93;58.76;99187.55;105103;1259;98050;-74
2023/04/21 01:22:11;;;;;;;43.60;23.20;;;;;;;8.89;58.78;99194.22;105188;1256;99189;-74
2023/04/21 01:24:42;;;;;;;40.00;22.10;;;;;;;8.82;58.71;99187.91;104876;1260;111195;-74
2023/04/21 01:27:12;;;;;;;40.60;20.70;;;;;;;8.80;58.89;99190.13;104818;1260;100240;-73
2023/04/21 01:29:41;;;;;;;39.00;17.10;;;;;;;8.77;59.00;99191.55;105014;1258;107627;-74
2023/04/21 01:32:18;;;;;;;34.50;14.30;;;;;;;8.74;58.81;99191.38;105013;1259;97991;-75
2023/04/21 01:34:47;;;;;;;33.50;14.30;;;;;;;8.71;58.82;99188.73;104744;1258;99182;-72
2023/04/21 01:37:19;;;;;;;32.00;13.90;;;;;;;8.66;58.76;99190.32;104975;1258;111197;-80
2023/04/21 01:39:53;;;;;;;31.70;14.10;;;;;;;8.59;58.97;99190.35;105017;1268;102045;-74
2023/04/21 01:42:23;;;;;;;29.90;14.00;;;;;;;8.51;58.95;99185.41;104906;1258;107642;-73
2023/04/21 01:44:52;;;;;;;33.90;14.50;;;;;;;8.44;58.99;99186.84;105152;1258;97960;-73
2023/04/21 01:47:22;;;;;;;33.80;13.80;;;;;;;8.38;59.07;99187.05;105041;1256;99266;-74
2023/04/21 01:49:50;;;;;;;33.00;14.00;;;;;;;8.33;59.25;99191.39;105131;1255;110953;-74
2023/04/21 01:52:19;;;;;;;27.60;13.10;;;;;;;8.29;59.27;99193.40;105042;1259;102463;-74
2023/04/21 01:54:47;;;;;;;31.40;13.30;;;;;;;8.24;59.18;99198.14;105329;1259;106637;-73
2023/04/21 01:57:16;;;;;;;32.90;14.30;;;;;;;8.18;59.18;99199.04;105096;1259;97941;-76
2023/04/21 01:59:45;;;;;;;34.80;15.80;;;;;;;8.09;59.16;99198.33;105154;1256;98460;-73
2023/04/21 02:02:13;;;;;;;34.50;15.00;;;;;;;8.04;59.22;99198.97;105133;1258;111283;-74
2023/04/21 02:04:41;;;;;;;29.90;14.10;;;;;;;7.99;59.42;99205.95;105100;1258;102391;-73
2023/04/21 02:07:09;;;;;;;28.10;13.20;;;;;;;7.91;59.50;99202.08;104855;1261;106604;-72
2023/04/21 02:09:37;;;;;;;32.90;13.70;;;;;;;7.83;59.50;99200.75;105124;1259;97961;-72
2023/04/21 02:12:05;;;;;;;31.60;13.70;;;;;;;7.79;59.63;99202.73;104948;1259;98438;-72
2023/04/21 02:14:32;;;;;;;32.60;13.20;;;;;;;7.78;59.60;99206.55;105000;1258;113414;-72
2023/04/21 02:17:02;;;;;;;32.20;13.40;;;;;;;7.73;59.60;99201.84;104905;1255;101892;-74
2023/04/21 02:19:30;;;;;;;34.40;14.60;;;;;;;7.69;59.51;99207.42;105071;1278;107640;-74
2023/04/21 02:21:58;;;;;;;29.60;13.70;;;;;;;7.64;59.73;99211.41;105081;1256;97986;-72
2023/04/21 02:24:26;;;;;;;27.70;12.70;;;;;;;7.58;59.64;99209.77;105165;1256;98439;-79
2023/04/21 02:26:53;;;;;;;32.30;12.90;;;;;;;7.53;59.69;99208.35;105135;1258;110848;-74
2023/04/21 02:29:22;;;;;;;30.80;13.10;;;;;;;7.46;59.70;99208.55;105095;1259;101930;-73
2023/04/21 02:31:49;;;;;;;28.10;13.10;;;;;;;7.41;59.76;99203.89;104878;1259;107405;-73
2023/04/21 02:34:32;;;;;;;27.00;11.80;;;;;;;7.37;59.88;99203.08;104858;1258;97921;-73
2023/04/21 02:37:00;;;;;;;30.30;12.60;;;;;;;7.31;59.84;99205.89;104903;1259;98374;-75
2023/04/21 02:39:28;;;;;;;27.20;11.80;;;;;;;7.28;59.77;99209.71;105094;1255;109458;-74
2023/04/21 02:41:57;;;;;;;30.00;11.30;;;;;;;7.26;59.95;99207.89;105149;1256;100990;-72
2023/04/21 02:44:25;;;;;;;25.60;11.50;;;;;;;7.23;59.90;99208.45;105055;1278;107987;-75
2023/04/21 02:46:53;;;;;;;25.30;11.50;;;;;;;7.19;60.07;99205.14;104682;1261;98492;-73
2023/04/21 02:49:21;;;;;;;28.10;11.40;;;;;;;7.16;60.09;99207.41;104962;1259;98443;-75
2023/04/21 02:51:49;;;;;;;29.70;12.10;;;;;;;7.12;60.08;99204.30;105149;1259;111277;-74
2023/04/21 02:54:16;;;;;;;25.50;11.00;;;;;;;7.07;60.17;99206.13;104934;1258;102065;-74
2023/04/21 02:56:45;;;;;;;31.10;12.00;;;;;;;7.05;60.08;99206.27;104990;1257;106670;-73
2023/04/21 02:59:15;;;;;;;28.40;10.60;;;;;;;7.03;60.10;99210.26;104872;1258;99256;-75
2023/04/21 03:01:43;;;;;;;28.30;10.40;;;;;;;6.97;60.26;99207.92;105030;1259;99333;-75
2023/04/21 03:04:12;;;;;;;27.70;10.20;;;;;;;6.92;60.19;99203.61;105438;1258;110283;-75
2023/04/21 03:06:40;;;;;;;24.10;9.80;;;;;;;6.90;60.35;99211.31;104883;1261;101514;-73
2023/04/21 03:09:08;;;;;;;29.00;10.60;;;;;;;6.87;60.20;99209.73;105163;1256;107124;-71
2023/04/21 03:11:35;;;;;;;28.60;10.30;;;;;;;6.82;60.33;99210.88;105097;1259;98088;-72
2023/04/21 03:14:03;;;;;;;24.20;10.20;;;;;;;6.81;60.62;99206.70;105094;1255;98592;-73
2023/04/21 03:16:31;;;;;;;27.10;11.30;;;;;;;6.81;60.59;99208.48;104711;1278;212115;-73
2023/04/21 03:19:00;;;;;;;30.80;9.80;;;;;;;6.78;60.57;99211.13;104884;1259;102903;-71
2023/04/21 03:21:28;;;;;;;24.80;9.70;;;;;;;6.74;60.72;99206.94;105033;1260;107611;-73
2023/04/21 03:23:55;;;;;;;27.50;10.00;;;;;;;6.69;60.40;99206.45;105118;1259;98008;-74
2023/04/21 03:26:24;;;;;;;25.30;9.70;;;;;;;6.67;60.78;99204.08;104856;1259;98414;-73
2023/04/21 03:28:52;;;;;;;27.10;10.20;;;;;;;6.67;60.83;99198.23;105050;1256;110975;-72
2023/04/21 03:31:20;;;;;;;25.10;9.90;;;;;;;6.66;60.77;99200.29;105368;1256;101982;-75
2023/04/21 03:33:48;;;;;;;27.30;10.10;;;;;;;6.65;60.78;99200.71;104880;1278;107623;-72
2023/04/21 03:36:16;;;;;;;27.70;10.10;;;;;;;6.62;60.74;99203.00;105123;1255;97935;-72
2023/04/21 03:38:43;;;;;;;22.80;9.90;;;;;;;6.57;60.59;99199.38;105014;1258;98751;-73
2023/04/21 03:41:12;;;;;;;25.20;10.10;;;;;;;6.56;60.89;99203.80;104897;1271;110936;-72
2023/04/21 03:43:40;;;;;;;25.70;9.80;;;;;;;6.57;60.93;99204.13;105056;1255;102481;-72
2023/04/21 03:46:17;;;;;;;26.30;10.20;;;;;;;6.56;60.99;99203.62;105278;1259;107235;-73
2023/04/21 03:48:46;;;;;;;26.60;9.90;;;;;;;6.58;61.05;99203.54;104968;1258;97996;-73
2023/04/21 03:51:14;;;;;;;29.30;11.10;;;;;;;6.60;60.96;99207.48;105201;1256;97938;-72
2023/04/21 03:53:42;;;;;;;26.70;10.30;;;;;;;6.61;60.83;99208.29;105080;1258;111220;-74
2023/04/21 03:56:10;;;;;;;23.30;10.40;;;;;;;6.63;60.92;99202.55;105061;1259;102163;-73
2023/04/21 03:58:38;;;;;;;31.10;10.00;;;;;;;6.67;61.13;99205.16;105109;1254;107647;-72
2023/04/21 04:01:06;;;;;;;22.60;9.00;;;;;;;6.70;61.10;99203.25;105070;1258;97950;-72
2023/04/21 04:03:34;;;;;;;25.40;9.90;;;;;;;6.73;61.24;99203.77;105069;1259;98454;-72
2023/04/21 04:06:03;;;;;;;26.30;9.70;;;;;;;6.77;61.14;99209.03;105060;1262;111985;-76
2023/04/21 04:08:31;;;;;;;30.40;10.20;;;;;;;6.79;61.21;99208.94;108477;1255;101910;-74
2023/04/21 04:10:58;;;;;;;24.50;9.10;;;;;;;6.81;61.20;99208.10;108486;1255;106012;-76
2023/04/21 04:13:27;;;;;;;30.70;11.50;;;;;;;6.85;61.42;99209.11;105025;1259;99399;-72
2023/04/21 04:15:57;;;;;;;27.10;10.10;;;;;;;6.90;61.12;99208.86;105040;1255;98298;-73
2023/04/21 04:18:25;;;;;;;23.80;9.50;;;;;;;6.96;61.56;99213.27;105039;1258;110317;-73
2023/04/21 04:20:53;;;;;;;25.70;10.90;;;;;;;7.02;61.33;99216.83;105070;1258;102267;-72
2023/04/21 04:23:21;;;;;;;28.40;10.60;;;;;;;7.08;61.38;99219.34;105181;1256;107651;-72
2023/04/21 04:25:50;;;;;;;23.90;9.60;;;;;;;7.14;61.50;99223.20;104923;1259;98400;-72
2023/04/21 04:28:18;;;;;;;24.40;9.60;;;;;;;7.19;61.63;99222.42;105037;1259;98885;-74
2023/04/21 04:30:46;;;;;;;24.90;10.00;;;;;;;7.24;61.64;99229.39;105059;1258;111034;-73
2023/04/21 04:33:14;;;;;;;22.90;9.50;;;;;;;7.27;61.69;99232.20;105094;1256;102297;-73
2023/04/21 04:35:42;;;;;;;25.00;10.60;;;;;;;7.30;61.73;99232.37;105050;1259;107792;-72
2023/04/21 04:38:11;;;;;;;29.20;10.80;;;;;;;7.36;61.93;99238.59;105078;1259;98022;-80
2023/04/21 04:40:39;;;;;;;27.00;10.30;;;;;;;7.41;61.70;99242.51;104898;1258;98416;-73
2023/04/21 04:43:09;;;;;;;24.80;10.60;;;;;;;7.46;61.85;99240.48;105063;1258;111218;-80
2023/04/21 04:45:37;;;;;;;24.60;10.10;;;;;;;7.52;61.79;99236.08;104909;1261;100505;-76
2023/04/21 04:48:06;;;;;;;25.30;10.20;;;;;;;7.58;61.96;99240.85;104999;1261;107306;-72
2023/04/21 04:50:34;;;;;;;41.50;11.30;;;;;;;7.63;61.94;99240.25;105128;1259;98432;-73
2023/04/21 04:53:02;;;;;;;26.70;10.20;;;;;;;7.68;61.99;99246.82;105934;1256;98311;-73
2023/04/21 04:55:29;;;;;;;26.70;10.20;;;;;;;7.75;62.07;99244.33;105292;1256;110894;-72
2023/04/21 04:57:57;;;;;;;24.40;9.90;;;;;;;7.83;62.10;99243.15;104886;1259;102439;-73
2023/04/21 05:00:25;;;;;;;24.40;10.30;;;;;;;7.92;62.01;99244.36;105229;1274;108545;-70
2023/04/21 05:02:54;;;;;;;21.50;9.30;;;;;;;8.03;62.13;99240.54;104848;1259;97977;-71
2023/04/21 05:05:23;;;;;;;25.90;9.80;;;;;;;8.15;62.16;99239.31;105089;1259;99278;-79
2023/04/21 05:07:51;;;;;;;27.60;9.90;;;;;;;8.27;62.17;99235.80;104875;1259;111006;-72
2023/04/21 05:10:19;;;;;;;24.70;9.50;;;;;;;8.33;62.04;99231.52;105039;1258;102419;-72
2023/04/21 05:12:47;;;;;;;23.40;9.70;;;;;;;8.38;62.18;99230.16;105053;1260;107344;-71
2023/04/21 05:15:17;;;;;;;25.30;9.90;;;;;;;8.43;62.28;99229.70;104868;1259;98746;-75
2023/04/21 05:17:45;;;;;;;21.30;9.70;;;;;;;8.48;62.15;99230.11;105106;1258;98766;-71
2023/04/21 05:20:13;;;;;;;24.10;9.00;;;;;;;8.52;62.17;99238.56;105215;1255;111282;-72
2023/04/21 05:22:41;;;;;;;21.80;10.30;;;;;;;8.56;62.32;99241.31;105175;1255;101943;-72
2023/04/21 05:25:11;;;;;;;25.40;10.60;;;;;;;8.60;62.22;99236.10;104865;1256;108370;-72
2023/04/21 05:27:39;;;;;;;23.20;10.40;;;;;;;8.65;62.34;99229.41;104975;1258;98103;-71
2023/04/21 05:30:08;;;;;;;24.30;9.80;;;;;;;8.71;62.30;99230.98;104821;1259;99164;-72
2023/04/21 05:32:36;;;;;;;23.70;9.90;;;;;;;8.81;62.20;99230.77;105038;1256;111198;-73
2023/04/21 05:35:05;;;;;;;23.60;9.90;;;;;;;8.91;62.34;99227.64;105079;1259;101469;-72
2023/04/21 05:37:32;;;;;;;25.90;12.10;;;;;;;9.04;62.28;99230.73;105037;1255;106169;-72
2023/04/21 05:40:00;;;;;;;26.10;9.80;;;;;;;9.21;62.40;99231.43;105135;1258;99263;-73
2023/04/21 05:42:28;;;;;;;26.60;10.20;;;;;;;9.35;62.32;99231.38;104889;1259;98424;-73
2023/04/21 05:44:56;;;;;;;22.70;9.10;;;;;;;9.45;62.20;99233.61;104840;1257;109421;-71
2023/04/21 05:47:25;;;;;;;27.40;10.10;;;;;;;9.50;62.12;99232.55;105156;1255;102291;-73
2023/04/21 05:49:53;;;;;;;23.10;9.50;;;;;;;9.58;62.27;99232.00;105027;1259;107273;-72
2023/04/21 05:52:20;;;;;;;22.00;10.10;;;;;;;9.69;62.22;99231.86;104891;1259;97955;-71
2023/04/21 05:54:48;;;;;;;24.30;10.00;;;;;;;9.78;62.16;99230.90;105135;1258;98562;-72
2023/04/21 05:57:16;;;;;;;21.20;9.10;;;;;;;9.87;62.26;99226.98;104894;1275;110790;-71
2023/04/21 05:59:44;;;;;;;25.40;10.10;;;;;;;9.93;62.13;99229.01;105098;1259;100525;-72
2023/04/21 06:02:13;;;;;;;20.80;9.50;;;;;;;10.01;62.20;99225.47;105022;1258;108172;-72
2023/04/21 06:04:41;;;;;;;25.50;10.50;;;;;;;10.09;62.13;99224.42;105071;1256;98023;-72
2023/04/21 06:07:12;;;;;;;24.70;9.80;;;;;;;10.19;62.14;99224.07;105055;1258;98433;-72
2023/04/21 06:09:40;;;;;;;22.50;9.70;;;;;;;10.26;62.16;99223.21;104984;1258;111831;-72
2023/04/21 06:12:08;;;;;;;25.20;10.20;;;;;;;10.32;62.09;99222.31;104830;1258;102237;-71
2023/04/21 06:14:35;;;;;;;23.00;9.70;;;;;;;10.40;62.22;99221.59;104883;1259;107334;-72
2023/04/21 06:17:04;;;;;;;22.70;10.00;;;;;;;10.50;62.07;99222.88;105081;1259;97963;-72
2023/04/21 06:19:37;;;;;;;22.30;9.00;;;;;;;10.53;62.00;99223.16;105050;1256;98376;-72
2023/04/21 06:22:04;;;;;;;24.80;9.90;;;;;;;10.54;61.89;99222.21;105028;1257;111236;-71
2023/04/21 06:24:32;;;;;;;22.40;10.40;;;;;;;10.53;61.90;99220.71;104912;1256;102385;-71
2023/04/21 06:27:00;;;;;;;21.70;9.90;;;;;;;10.53;61.97;99219.63;104880;1258;106642;-70
2023/04/21 06:29:28;;;;;;;22.20;10.40;;;;;;;10.55;61.80;99218.60;105005;1258;98065;-71
2023/04/21 06:31:56;;;;;;;19.50;8.70;;;;;;;10.58;61.84;99218.75;104854;1259;97942;-70
2023/04/21 06:34:24;;;;;;;23.00;8.80;;;;;;;10.63;61.87;99219.30;104853;1271;110022;-70
2023/04/21 06:36:52;;;;;;;20.40;8.60;;;;;;;10.65;61.67;99217.59;105038;1255;102429;-70
2023/04/21 06:39:20;;;;;;;20.60;8.30;;;;;;;10.64;61.60;99213.02;105143;1258;107648;-70
2023/04/21 06:41:48;;;;;;;23.30;8.90;;;;;;;10.66;61.67;99213.27;104859;1259;97943;-71
2023/04/21 06:44:15;;;;;;;23.00;9.70;;;;;;;10.68;61.75;99210.30;105122;1255;99186;-73
2023/04/21 06:46:44;;;;;;;23.20;9.00;;;;;;;10.70;61.72;99211.68;104888;1258;111392;-70
2023/04/21 06:49:12;;;;;;;20.40;8.80;;;;;;;10.73;61.56;99212.02;105071;1258;102216;-71
2023/04/21 06:51:40;;;;;;;20.70;8.20;;;;;;;10.75;61.53;99213.31;105085;1258;107211;-71
2023/04/21 06:54:07;;;;;;;17.60;7.90;;;;;;;10.77;61.55;99213.36;104897;1276;99281;-77
2023/04/21 06:56:35;;;;;;;18.90;8.80;;;;;;;10.79;61.51;99211.96;104912;1256;98898;-72
2023/04/21 06:59:03;;;;;;;19.70;8.40;;;;;;;10.82;61.49;99209.26;105029;1258;110966;-73
2023/04/21 07:01:31;;;;;;;18.70;8.20;;;;;;;10.85;61.46;99212.09;105072;1260;102196;-72
2023/04/21 07:04:00;;;;;;;21.10;8.50;;;;;;;10.88;61.37;99210.45;105177;1258;108011;-75
2023/04/21 07:06:28;;;;;;;21.50;8.30;;;;;;;10.92;61.42;99210.32;105049;1258;99184;-71
2023/04/21 07:08:55;;;;;;;19.10;8.40;;;;;;;10.98;61.47;99207.63;105071;1256;99809;-72
2023/04/21 07:11:23;;;;;;;21.10;8.20;;;;;;;11.03;61.53;99212.94;105050;1255;111262;-74
2023/04/21 07:13:51;;;;;;;21.60;8.20;;;;;;;11.08;61.36;99211.86;105045;1259;101844;-71
2023/04/21 07:16:19;;;;;;;22.50;8.60;;;;;;;11.12;61.24;99210.14;105080;1256;106278;-71
2023/04/21 07:18:47;;;;;;;21.20;9.20;;;;;;;11.17;61.36;99210.20;105050;1258;97927;-70
2023/04/21 07:21:15;;;;;;;17.60;7.90;;;;;;;11.21;61.48;99214.48;104828;1258;98392;-76
2023/04/21 07:23:43;;;;;;;19.50;8.20;;;;;;;11.24;61.17;99211.02;105050;1258;110854;-71
2023/04/21 07:26:11;;;;;;;18.20;7.80;;;;;;;11.30;61.46;99213.67;105098;1258;102469;-71
2023/04/21 07:28:41;;;;;;;21.60;7.80;;;;;;;11.37;61.28;99211.06;105019;1254;108422;-72
2023/04/21 07:31:10;;;;;;;17.00;7.20;;;;;;;11.41;61.22;99210.41;104826;1259;98006;-72
2023/04/21 07:33:38;;;;;;;17.40;6.70;;;;;;;11.46;61.21;99216.20;105040;1258;98552;-71
2023/04/21 07:36:06;;;;;;;19.40;7.10;;;;;;;11.56;61.10;99211.54;105164;1255;111264;-72
2023/04/21 07:38:34;;;;;;;15.20;6.70;;;;;;;11.65;60.94;99210.56;105014;1259;101527;-71
2023/04/21 07:41:01;;;;;;;15.40;6.60;;;;;;;11.72;60.81;99210.56;105069;1259;107598;-71
2023/04/21 07:43:30;;;;;;;16.70;7.10;;;;;;;11.77;60.85;99210.15;105042;1256;99151;-71
2023/04/21 07:45:58;;;;;;;16.20;6.80;;;;;;;11.83;60.97;99205.31;105033;1258;98447;-72
2023/04/21 07:48:26;;;;;;;16.10;6.70;;;;;;;11.88;60.70;99211.46;104877;1258;110958;-74
2023/04/21 07:50:54;;;;;;;16.50;6.60;;;;;;;11.94;60.53;99200.94;105072;1258;102291;-72
2023/04/21 07:53:22;;;;;;;15.50;6.90;;;;;;;12.01;60.49;99205.23;105111;1269;107608;-77
2023/04/21 07:55:50;;;;;;;18.00;7.00;;;;;;;12.06;60.61;99203.58;105036;1258;97955;-72
2023/04/21 07:58:17;;;;;;;16.90;6.60;;;;;;;12.13;60.28;99203.76;105123;1255;97969;-71
2023/04/21 08:00:46;;;;;;;17.00;7.20;;;;;;;12.20;60.39;99195.27;104830;1259;111266;-72
2023/04/21 08:03:14;;;;;;;17.00;7.30;;;;;;;12.24;60.37;99193.88;105245;1258;100925;-71
2023/04/21 08:05:42;;;;;;;18.20;6.50;;;;;;;12.31;60.36;99195.81;104895;1262;107649;-73
2023/04/21 08:08:10;;;;;;;15.00;6.50;;;;;;;12.40;60.16;99195.45;105079;1259;98034;-72
2023/04/21 08:10:38;;;;;;;16.90;6.30;;;;;;;12.49;60.05;99192.23;105121;1259;97900;-71
2023/04/21 08:13:06;;;;;;;17.50;6.60;;;;;;;12.54;59.99;99192.80;105068;1269;111279;-72
2023/04/21 08:15:35;;;;;;;16.10;6.60;;;;;;;12.58;59.97;99192.45;105101;1258;101856;-73
2023/04/21 08:18:03;;;;;;;18.50;6.50;;;;;;;12.63;59.85;99185.99;105053;1258;107685;-71
2023/04/21 08:20:31;;;;;;;17.50;7.20;;;;;;;12.70;59.40;99183.19;105076;1256;97945;-71
2023/04/21 08:22:59;;;;;;;16.30;6.50;;;;;;;12.72;59.92;99185.28;104819;1259;98451;-71
2023/04/21 08:25:27;;;;;;;16.50;7.10;;;;;;;12.76;59.58;99183.21;105153;1258;111232;-71
2023/04/21 08:27:55;;;;;;;15.40;6.40;;;;;;;12.85;59.42;99183.97;104813;1258;102647;-71
2023/04/21 08:30:26;;;;;;;18.00;6.60;;;;;;;12.94;59.43;99189.82;104813;1261;107030;-71
2023/04/21 08:32:54;;;;;;;15.50;6.70;;;;;;;13.00;59.41;99183.79;104954;1256;99157;-71
2023/04/21 08:35:22;;;;;;;15.70;7.10;;;;;;;13.06;59.11;99191.00;105112;1258;99806;-72
2023/04/21 08:37:50;;;;;;;13.70;6.50;;;;;;;13.10;59.38;99184.39;105005;1258;111070;-72
2023/04/21 08:40:20;;;;;;;14.50;6.40;;;;;;;13.10;59.06;99187.98;104836;1258;102471;-71
2023/04/21 08:42:48;;;;;;;18.00;6.80;;;;;;;13.14;59.05;99184.80;105122;1256;107269;-76
2023/04/21 08:45:16;;;;;;;17.00;6.40;;;;;;;13.22;59.03;99180.59;105171;1258;99202;-73
2023/04/21 08:47:46;;;;;;;16.60;5.80;;;;;;;13.29;58.84;99183.81;104995;1255;98443;-72
2023/04/21 08:50:14;;;;;;;15.40;6.20;;;;;;;13.33;59.03;99180.27;105089;1258;111277;-72
2023/04/21 08:52:42;;;;;;;18.20;6.70;;;;;;;13.37;58.73;99175.43;104948;1258;101708;-71
2023/04/21 08:55:10;;;;;;;15.30;6.00;;;;;;;13.44;58.93;99172.08;104788;1258;108248;-72
2023/04/21 08:57:38;;;;;;;18.00;6.40;;;;;;;13.49;58.71;99171.45;105071;1259;98332;-72
2023/04/21 09:00:08;;;;;;;14.30;6.30;;;;;;;13.56;58.57;99171.23;104908;1259;98456;-71
2023/04/21 09:02:52;;;;;;;14.70;6.20;;;;;;;13.70;58.68;99170.27;104919;1257;111231;-70
2023/04/21 09:05:29;;;;;;;13.00;5.30;;;;;;;13.86;57.98;99171.48;105062;1270;100724;-72
2023/04/21 09:08:11;;;;;;;10.80;5.00;;;;;;;13.90;58.27;99163.27;104973;1259;107464;-74
2023/04/21 09:10:43;;;;;;;12.60;4.60;;;;;;;13.91;58.30;99162.33;104884;1258;99136;-70
2023/04/21 09:13:12;;;;;;;18.20;5.50;;;;;;;13.90;57.81;99164.34;104962;1256;98444;-71
2023/04/21 09:15:42;;;;;;;12.10;5.30;;;;;;;13.91;57.53;99166.23;105124;1258;110989;-71
2023/04/21 09:18:14;;;;;;;12.00;4.50;;;;;;;13.98;57.59;99152.39;104971;1256;101959;-70
2023/04/21 09:20:44;;;;;;;10.80;5.20;;;;;;;14.10;57.20;99153.75;104921;1273;107118;-71
2023/04/21 09:23:12;;;;;;;14.20;5.20;;;;;;;14.22;56.94;99152.49;104971;1256;97955;-72
2023/04/21 09:25:44;;;;;;;10.50;4.60;;;;;;;14.31;56.48;99154.41;105007;1256;98343;-71
2023/04/21 09:28:13;;;;;;;11.60;4.90;;;;;;;14.40;56.29;99152.94;105039;1260;111255;-72
2023/04/21 09:30:42;;;;;;;12.20;5.10;;;;;;;14.48;56.08;99149.19;104810;1258;102491;-74
2023/04/21 09:33:19;;;;;;;9.40;4.30;;;;;;;14.53;56.04;99148.08;105174;1270;107747;-72
2023/04/21 09:36:00;;;;;;;11.90;5.00;;;;;;;14.53;56.17;99148.95;105029;1259;97965;-71
2023/04/21 09:38:29;;;;;;;11.20;4.70;;;;;;;14.50;56.01;99145.79;105030;1258;98439;-71
2023/04/21 09:40:58;;;;;;;8.60;3.90;;;;;;;14.52;55.58;99147.66;105039;1255;111271;-71
2023/04/21 09:43:26;;;;;;;9.00;4.00;;;;;;;14.55;55.02;99144.84;104987;1256;102132;-75
2023/04/21 09:45:55;;;;;;;9.10;4.10;;;;;;;14.61;55.34;99141.15;105125;1256;107441;-71
2023/04/21 09:48:28;;;;;;;9.00;4.40;;;;;;;14.58;54.24;99147.93;104970;1258;99180;-72
2023/04/21 09:50:57;;;;;;;7.90;4.40;;;;;;;14.56;54.98;99140.60;105043;1258;97944;-71
2023/04/21 09:53:28;;;;;;;11.50;4.80;;;;;;;14.60;54.08;99144.61;104983;1258;110823;-73
2023/04/21 09:55:57;;;;;;;10.70;4.40;;;;;;;14.69;54.29;99129.91;104743;1258;102244;-76
2023/04/21 09:58:32;;;;;;;10.10;4.20;;;;;;;14.84;53.85;99140.38;104946;1259;107382;-71
2023/04/21 10:01:03;;;;;;;11.20;4.40;;;;;;;14.95;53.15;99140.29;104930;1258;98252;-71
2023/04/21 10:03:31;;;;;;;8.60;4.10;;;;;;;14.92;52.88;99143.06;105156;1258;98315;-71
2023/04/21 10:06:00;;;;;;;10.40;4.50;;;;;;;14.85;52.95;99134.42;105156;1258;110247;-71
2023/04/21 10:08:28;;;;;;;8.50;3.90;;;;;;;14.78;53.42;99128.39;104841;1258;102415;-72
2023/04/21 10:10:58;;;;;;;10.60;4.20;;;;;;;14.75;53.53;99132.06;104953;1258;107586;-71
2023/04/21 10:13:26;;;;;;;9.50;4.60;;;;;;;14.82;52.92;99126.84;104951;1274;97948;-72
2023/04/21 10:16:03;;;;;;;11.50;4.60;;;;;;;14.99;52.87;99127.41;105081;1258;98578;-71
2023/04/21 10:18:42;;;;;;;10.10;4.00;;;;;;;15.14;52.90;99114.45;104953;1258;113809;-72
2023/04/21 10:21:11;;;;;;;6.50;3.70;;;;;;;15.17;53.08;99105.95;105167;1256;101656;-72
2023/04/21 10:23:44;;;;;;;12.60;4.00;;;;;;;15.13;52.31;99109.04;104892;1272;108278;-70
2023/04/21 10:26:17;;;;;;;12.50;4.10;;;;;;;15.08;52.54;99111.65;104805;1258;97945;-72
2023/04/21 10:28:59;;;;;;;9.80;4.00;;;;;;;15.03;51.97;99112.11;104730;1256;99204;-71
2023/04/21 10:31:33;;;;;;;8.50;4.00;;;;;;;14.97;52.35;99109.23;104896;1256;111239;-70
2023/04/21 10:34:07;;;;;;;8.40;3.50;;;;;;;14.97;52.13;99104.60;104955;1259;102358;-72
2023/04/21 10:36:45;;;;;;;5.70;3.20;;;;;;;15.00;50.92;99101.83;104822;1257;108925;-71
2023/04/21 10:39:32;;;;;;;9.60;4.00;;;;;;;15.08;51.60;99097.73;104921;1259;97949;-72
2023/04/21 10:42:12;;;;;;;8.10;3.50;;;;;;;15.12;51.70;99095.38;104887;1258;98243;-77
2023/04/21 10:44:44;;;;;;;9.20;3.70;;;;;;;15.13;51.23;99091.33;105022;1261;111309;-72
2023/04/21 10:47:12;;;;;;;9.30;3.90;;;;;;;15.12;50.96;99086.95;105033;1258;101342;-73
2023/04/21 10:49:41;;;;;;;7.20;3.40;;;;;;;15.12;51.12;99086.95;105070;1256;107129;-71
2023/04/21 10:52:11;;;;;;;5.60;3.00;;;;;;;15.13;50.46;99082.92;104814;1259;97993;-71
2023/04/21 10:55:03;;;;;;;7.50;3.30;;;;;;;15.18;49.21;99079.13;105087;1258;98400;-71
2023/04/21 10:57:33;;;;;;;7.80;3.30;;;;;;;15.24;50.07;99079.63;104778;1259;110995;-72
2023/04/21 11:00:05;;;;;;;9.70;3.60;;;;;;;15.26;50.29;99071.63;104951;1259;102593;-71
2023/04/21 11:02:34;;;;;;;6.70;3.10;;;;;;;15.31;48.85;99074.34;104809;1258;106710;-71
2023/04/21 11:05:08;;;;;;;5.10;3.00;;;;;;;15.31;49.29;99080.20;104905;1260;98162;-71
2023/04/21 11:07:36;;;;;;;9.40;3.60;;;;;;;15.27;49.54;99071.85;104955;1259;98524;-70
2023/04/21 11:10:08;;;;;;;8.40;3.50;;;;;;;15.27;49.45;99072.55;105141;1258;111278;-70
2023/04/21 11:12:39;;;;;;;6.50;3.10;;;;;;;15.29;49.72;99071.48;105056;1259;101955;-72
2023/04/21 11:15:13;;;;;;;5.80;3.20;;;;;;;15.30;49.22;99076.38;104913;1261;107200;-71
2023/04/21 11:17:45;;;;;;;6.10;3.20;;;;;;;15.32;49.10;99074.59;105098;1258;97941;-70
2023/04/21 11:20:14;;;;;;;9.10;3.60;;;;;;;15.36;48.96;99070.51;104993;1256;98046;-71
2023/04/21 11:22:43;;;;;;;7.70;3.50;;;;;;;15.37;47.87;99082.02;105083;1256;111301;-72